sensor_id;sensor_type;location;lat;lon;timestamp;temperature;humidity
67005;HTU21D;53920;51.094;5.902;2023-07-09T00:01:21;23.42;66.87
67005;HTU21D;53920;51.094;5.902;2023-07-09T00:03:48;23.40;66.79
67005;HTU21D;53920;51.094;5.902;2023-07-09T00:06:18;23.37;66.72
67005;HTU21D;53920;51.094;5.902;2023-07-09T00:08:45;23.32;66.90
67005;HTU21D;53920;51.094;5.902;2023-07-09T00:11:15;23.30;66.98
67005;HTU21D;53920;51.094;5.902;2023-07-09T00:13:41;23.26;67.01
67005;HTU21D;53920;51.094;5.902;2023-07-09T00:16:16;23.23;67.21
67005;HTU21D;53920;51.094;5.902;2023-07-09T00:18:44;23.20;67.27
67005;HTU21D;53920;51.094;5.902;2023-07-09T00:21:10;23.22;67.28
67005;HTU21D;53920;51.094;5.902;2023-07-09T00:23:36;23.22;67.19
67005;HTU21D;53920;51.094;5.902;2023-07-09T00:26:12;23.23;67.00
67005;HTU21D;53920;51.094;5.902;2023-07-09T00:28:42;23.20;66.99
67005;HTU21D;53920;51.094;5.902;2023-07-09T00:31:15;23.15;67.10
67005;HTU21D;53920;51.094;5.902;2023-07-09T00:33:42;23.12;67.24
67005;HTU21D;53920;51.094;5.902;2023-07-09T00:36:35;23.08;67.30
67005;HTU21D;53920;51.094;5.902;2023-07-09T00:39:01;23.05;67.48
67005;HTU21D;53920;51.094;5.902;2023-07-09T00:41:36;23.00;67.50
67005;HTU21D;53920;51.094;5.902;2023-07-09T00:49:31;22.88;67.68
67005;HTU21D;53920;51.094;5.902;2023-07-09T00:52:13;22.83;67.83
67005;HTU21D;53920;51.094;5.902;2023-07-09T00:54:44;22.79;68.07
67005;HTU21D;53920;51.094;5.902;2023-07-09T00:57:16;22.76;68.24
67005;HTU21D;53920;51.094;5.902;2023-07-09T00:59:56;22.72;68.46
67005;HTU21D;53920;51.094;5.902;2023-07-09T01:02:23;22.65;68.62
67005;HTU21D;53920;51.094;5.902;2023-07-09T01:04:54;22.61;68.91
67005;HTU21D;53920;51.094;5.902;2023-07-09T01:07:21;22.54;69.09
67005;HTU21D;53920;51.094;5.902;2023-07-09T01:09:47;22.51;69.26
67005;HTU21D;53920;51.094;5.902;2023-07-09T01:12:16;22.46;69.38
67005;HTU21D;53920;51.094;5.902;2023-07-09T01:14:44;22.40;69.51
67005;HTU21D;53920;51.094;5.902;2023-07-09T01:17:14;22.34;69.62
67005;HTU21D;53920;51.094;5.902;2023-07-09T01:19:49;22.32;69.69
67005;HTU21D;53920;51.094;5.902;2023-07-09T01:22:18;22.31;69.68
67005;HTU21D;53920;51.094;5.902;2023-07-09T01:24:53;22.27;69.78
67005;HTU21D;53920;51.094;5.902;2023-07-09T01:27:23;22.25;69.94
67005;HTU21D;53920;51.094;5.902;2023-07-09T01:29:50;22.23;69.97
67005;HTU21D;53920;51.094;5.902;2023-07-09T01:32:20;22.21;70.13
67005;HTU21D;53920;51.094;5.902;2023-07-09T01:34:50;22.18;70.30
67005;HTU21D;53920;51.094;5.902;2023-07-09T01:37:21;22.16;70.35
67005;HTU21D;53920;51.094;5.902;2023-07-09T01:39:50;22.11;70.51
67005;HTU21D;53920;51.094;5.902;2023-07-09T01:42:18;22.08;70.68
67005;HTU21D;53920;51.094;5.902;2023-07-09T01:44:48;22.07;70.79
67005;HTU21D;53920;51.094;5.902;2023-07-09T01:47:14;22.08;70.81
67005;HTU21D;53920;51.094;5.902;2023-07-09T01:49:41;22.08;70.76
67005;HTU21D;53920;51.094;5.902;2023-07-09T01:52:07;22.12;70.54
67005;HTU21D;53920;51.094;5.902;2023-07-09T01:54:34;22.13;70.34
67005;HTU21D;53920;51.094;5.902;2023-07-09T01:57:32;22.13;70.35
67005;HTU21D;53920;51.094;5.902;2023-07-09T02:00:05;22.17;70.35
67005;HTU21D;53920;51.094;5.902;2023-07-09T02:02:41;22.18;70.30
67005;HTU21D;53920;51.094;5.902;2023-07-09T02:05:13;22.18;70.20
67005;HTU21D;53920;51.094;5.902;2023-07-09T02:07:40;22.18;70.13
67005;HTU21D;53920;51.094;5.902;2023-07-09T02:10:07;22.16;70.19
67005;HTU21D;53920;51.094;5.902;2023-07-09T02:12:33;22.14;70.15
67005;HTU21D;53920;51.094;5.902;2023-07-09T02:14:59;22.13;70.22
67005;HTU21D;53920;51.094;5.902;2023-07-09T02:17:25;22.08;70.35
67005;HTU21D;53920;51.094;5.902;2023-07-09T02:19:51;22.08;70.46
67005;HTU21D;53920;51.094;5.902;2023-07-09T02:22:17;22.07;70.52
67005;HTU21D;53920;51.094;5.902;2023-07-09T02:24:45;22.03;70.72
67005;HTU21D;53920;51.094;5.902;2023-07-09T02:27:14;21.99;70.92
67005;HTU21D;53920;51.094;5.902;2023-07-09T02:29:41;21.98;71.63
67005;HTU21D;53920;51.094;5.902;2023-07-09T02:32:07;21.97;71.56
67005;HTU21D;53920;51.094;5.902;2023-07-09T02:34:33;21.96;71.24
67005;HTU21D;53920;51.094;5.902;2023-07-09T02:36:59;21.93;71.27
67005;HTU21D;53920;51.094;5.902;2023-07-09T02:39:26;21.93;71.22
67005;HTU21D;53920;51.094;5.902;2023-07-09T02:41:53;21.90;71.15
67005;HTU21D;53920;51.094;5.902;2023-07-09T02:44:20;21.88;71.18
67005;HTU21D;53920;51.094;5.902;2023-07-09T02:46:46;21.87;71.26
67005;HTU21D;53920;51.094;5.902;2023-07-09T02:49:13;21.87;71.21
67005;HTU21D;53920;51.094;5.902;2023-07-09T02:51:40;21.85;71.08
67005;HTU21D;53920;51.094;5.902;2023-07-09T02:54:07;21.82;71.19
67005;HTU21D;53920;51.094;5.902;2023-07-09T02:56:33;21.78;71.28
67005;HTU21D;53920;51.094;5.902;2023-07-09T02:58:59;21.73;71.29
67005;HTU21D;53920;51.094;5.902;2023-07-09T03:01:25;21.67;71.48
67005;HTU21D;53920;51.094;5.902;2023-07-09T03:03:57;21.65;71.54
67005;HTU21D;53920;51.094;5.902;2023-07-09T03:06:27;21.62;71.71
67005;HTU21D;53920;51.094;5.902;2023-07-09T03:08:53;21.62;71.67
67005;HTU21D;53920;51.094;5.902;2023-07-09T03:11:20;21.59;71.63
67005;HTU21D;53920;51.094;5.902;2023-07-09T03:13:47;21.58;71.84
67005;HTU21D;53920;51.094;5.902;2023-07-09T03:16:14;21.55;71.99
67005;HTU21D;53920;51.094;5.902;2023-07-09T03:18:40;21.51;72.14
67005;HTU21D;53920;51.094;5.902;2023-07-09T03:21:06;21.52;72.27
67005;HTU21D;53920;51.094;5.902;2023-07-09T03:23:32;21.51;72.29
67005;HTU21D;53920;51.094;5.902;2023-07-09T03:25:58;21.52;72.24
67005;HTU21D;53920;51.094;5.902;2023-07-09T03:28:25;21.50;72.27
67005;HTU21D;53920;51.094;5.902;2023-07-09T03:30:54;21.49;72.25
67005;HTU21D;53920;51.094;5.902;2023-07-09T03:33:22;21.47;72.13
67005;HTU21D;53920;51.094;5.902;2023-07-09T03:35:48;21.44;72.11
67005;HTU21D;53920;51.094;5.902;2023-07-09T03:38:14;21.40;72.20
67005;HTU21D;53920;51.094;5.902;2023-07-09T03:40:39;21.38;72.25
67005;HTU21D;53920;51.094;5.902;2023-07-09T03:43:09;21.35;72.40
67005;HTU21D;53920;51.094;5.902;2023-07-09T03:45:36;21.31;72.49
67005;HTU21D;53920;51.094;5.902;2023-07-09T03:48:05;21.29;72.67
67005;HTU21D;53920;51.094;5.902;2023-07-09T03:50:31;21.27;72.80
67005;HTU21D;53920;51.094;5.902;2023-07-09T03:52:57;21.25;72.75
67005;HTU21D;53920;51.094;5.902;2023-07-09T03:55:23;21.25;72.81
67005;HTU21D;53920;51.094;5.902;2023-07-09T03:57:53;21.24;72.95
67005;HTU21D;53920;51.094;5.902;2023-07-09T04:00:19;21.27;72.87
67005;HTU21D;53920;51.094;5.902;2023-07-09T04:02:45;21.27;72.81
67005;HTU21D;53920;51.094;5.902;2023-07-09T04:05:11;21.30;72.72
67005;HTU21D;53920;51.094;5.902;2023-07-09T04:07:38;21.33;72.61
67005;HTU21D;53920;51.094;5.902;2023-07-09T04:10:05;21.34;72.55
67005;HTU21D;53920;51.094;5.902;2023-07-09T04:12:32;21.37;72.57
67005;HTU21D;53920;51.094;5.902;2023-07-09T04:14:58;21.40;72.54
67005;HTU21D;53920;51.094;5.902;2023-07-09T04:17:24;21.44;72.44
67005;HTU21D;53920;51.094;5.902;2023-07-09T04:19:50;21.48;72.39
67005;HTU21D;53920;51.094;5.902;2023-07-09T04:22:17;21.54;72.23
67005;HTU21D;53920;51.094;5.902;2023-07-09T04:24:43;21.60;72.02
67005;HTU21D;53920;51.094;5.902;2023-07-09T04:27:10;21.66;71.87
67005;HTU21D;53920;51.094;5.902;2023-07-09T04:29:36;21.72;71.80
67005;HTU21D;53920;51.094;5.902;2023-07-09T04:32:08;21.77;71.61
67005;HTU21D;53920;51.094;5.902;2023-07-09T04:34:37;21.81;71.61
67005;HTU21D;53920;51.094;5.902;2023-07-09T04:37:06;21.88;71.54
67005;HTU21D;53920;51.094;5.902;2023-07-09T04:39:33;21.93;71.44
67005;HTU21D;53920;51.094;5.902;2023-07-09T04:41:59;21.98;71.13
67005;HTU21D;53920;51.094;5.902;2023-07-09T04:44:26;22.06;70.93
67005;HTU21D;53920;51.094;5.902;2023-07-09T04:46:51;22.12;70.63
67005;HTU21D;53920;51.094;5.902;2023-07-09T04:49:17;22.20;70.57
67005;HTU21D;53920;51.094;5.902;2023-07-09T04:51:43;22.25;70.32
67005;HTU21D;53920;51.094;5.902;2023-07-09T04:54:09;22.33;70.25
67005;HTU21D;53920;51.094;5.902;2023-07-09T04:56:35;22.38;70.25
67005;HTU21D;53920;51.094;5.902;2023-07-09T04:59:03;22.44;70.21
67005;HTU21D;53920;51.094;5.902;2023-07-09T05:01:28;22.49;69.85
67005;HTU21D;53920;51.094;5.902;2023-07-09T05:03:55;22.56;69.64
67005;HTU21D;53920;51.094;5.902;2023-07-09T05:06:20;22.65;69.14
67005;HTU21D;53920;51.094;5.902;2023-07-09T05:08:47;22.77;69.08
67005;HTU21D;53920;51.094;5.902;2023-07-09T05:11:14;22.88;69.11
67005;HTU21D;53920;51.094;5.902;2023-07-09T05:13:40;22.99;68.51
67005;HTU21D;53920;51.094;5.902;2023-07-09T05:16:06;23.10;68.13
67005;HTU21D;53920;51.094;5.902;2023-07-09T05:18:32;23.21;67.83
67005;HTU21D;53920;51.094;5.902;2023-07-09T05:20:57;23.31;67.69
67005;HTU21D;53920;51.094;5.902;2023-07-09T05:23:26;23.41;67.97
67005;HTU21D;53920;51.094;5.902;2023-07-09T05:25:57;23.51;68.07
67005;HTU21D;53920;51.094;5.902;2023-07-09T05:28:23;23.59;68.15
67005;HTU21D;53920;51.094;5.902;2023-07-09T05:30:49;23.69;68.17
67005;HTU21D;53920;51.094;5.902;2023-07-09T05:33:17;23.77;68.22
67005;HTU21D;53920;51.094;5.902;2023-07-09T05:35:44;23.85;68.07
67005;HTU21D;53920;51.094;5.902;2023-07-09T05:38:11;23.97;67.94
67005;HTU21D;53920;51.094;5.902;2023-07-09T05:40:37;24.09;67.69
67005;HTU21D;53920;51.094;5.902;2023-07-09T05:43:04;24.18;67.36
67005;HTU21D;53920;51.094;5.902;2023-07-09T05:45:31;24.28;66.81
67005;HTU21D;53920;51.094;5.902;2023-07-09T05:48:00;24.41;66.14
67005;HTU21D;53920;51.094;5.902;2023-07-09T05:50:27;24.50;66.13
67005;HTU21D;53920;51.094;5.902;2023-07-09T05:52:53;24.61;65.47
67005;HTU21D;53920;51.094;5.902;2023-07-09T05:55:19;24.70;64.94
67005;HTU21D;53920;51.094;5.902;2023-07-09T05:57:46;24.82;64.50
67005;HTU21D;53920;51.094;5.902;2023-07-09T06:00:12;24.91;64.24
67005;HTU21D;53920;51.094;5.902;2023-07-09T06:02:39;25.01;63.64
67005;HTU21D;53920;51.094;5.902;2023-07-09T06:05:06;25.13;63.74
67005;HTU21D;53920;51.094;5.902;2023-07-09T06:07:35;25.23;63.01
67005;HTU21D;53920;51.094;5.902;2023-07-09T06:10:00;25.37;62.77
67005;HTU21D;53920;51.094;5.902;2023-07-09T06:12:26;25.49;62.61
67005;HTU21D;53920;51.094;5.902;2023-07-09T06:14:52;25.59;61.28
67005;HTU21D;53920;51.094;5.902;2023-07-09T06:17:18;25.72;60.31
67005;HTU21D;53920;51.094;5.902;2023-07-09T06:19:44;25.86;59.35
67005;HTU21D;53920;51.094;5.902;2023-07-09T06:22:09;25.99;58.74
67005;HTU21D;53920;51.094;5.902;2023-07-09T06:24:35;26.16;58.43
67005;HTU21D;53920;51.094;5.902;2023-07-09T06:27:01;26.32;58.30
67005;HTU21D;53920;51.094;5.902;2023-07-09T06:29:27;26.49;57.75
67005;HTU21D;53920;51.094;5.902;2023-07-09T06:31:52;26.66;57.46
67005;HTU21D;53920;51.094;5.902;2023-07-09T06:34:18;26.81;57.26
67005;HTU21D;53920;51.094;5.902;2023-07-09T06:36:44;26.94;56.80
67005;HTU21D;53920;51.094;5.902;2023-07-09T06:39:10;27.09;56.87
67005;HTU21D;53920;51.094;5.902;2023-07-09T06:41:36;27.23;56.22
67005;HTU21D;53920;51.094;5.902;2023-07-09T06:44:09;27.41;55.81
67005;HTU21D;53920;51.094;5.902;2023-07-09T06:46:35;27.60;55.17
67005;HTU21D;53920;51.094;5.902;2023-07-09T06:49:03;27.83;55.20
67005;HTU21D;53920;51.094;5.902;2023-07-09T06:51:31;28.11;54.42
67005;HTU21D;53920;51.094;5.902;2023-07-09T06:53:56;28.54;53.03
67005;HTU21D;53920;51.094;5.902;2023-07-09T06:56:23;29.59;50.02
67005;HTU21D;53920;51.094;5.902;2023-07-09T06:58:49;31.12;45.53
67005;HTU21D;53920;51.094;5.902;2023-07-09T07:01:15;32.63;41.71
67005;HTU21D;53920;51.094;5.902;2023-07-09T07:03:41;33.90;38.87
67005;HTU21D;53920;51.094;5.902;2023-07-09T07:06:07;35.10;36.37
67005;HTU21D;53920;51.094;5.902;2023-07-09T07:08:33;35.99;33.60
67005;HTU21D;53920;51.094;5.902;2023-07-09T07:11:01;36.54;31.98
67005;HTU21D;53920;51.094;5.902;2023-07-09T07:13:37;37.05;31.07
67005;HTU21D;53920;51.094;5.902;2023-07-09T07:16:06;37.37;30.42
67005;HTU21D;53920;51.094;5.902;2023-07-09T07:18:33;38.06;29.19
67005;HTU21D;53920;51.094;5.902;2023-07-09T07:20:59;38.54;28.42
67005;HTU21D;53920;51.094;5.902;2023-07-09T07:23:25;38.95;27.70
67005;HTU21D;53920;51.094;5.902;2023-07-09T07:25:51;39.28;26.97
67005;HTU21D;53920;51.094;5.902;2023-07-09T07:28:17;39.12;26.85
67005;HTU21D;53920;51.094;5.902;2023-07-09T07:30:44;38.77;26.84
67005;HTU21D;53920;51.094;5.902;2023-07-09T07:33:13;38.96;26.54
67005;HTU21D;53920;51.094;5.902;2023-07-09T07:35:38;39.08;26.27
67005;HTU21D;53920;51.094;5.902;2023-07-09T07:38:04;39.36;25.68
67005;HTU21D;53920;51.094;5.902;2023-07-09T07:40:31;39.34;25.30
67005;HTU21D;53920;51.094;5.902;2023-07-09T07:42:57;39.63;24.75
67005;HTU21D;53920;51.094;5.902;2023-07-09T07:45:23;39.86;24.53
67005;HTU21D;53920;51.094;5.902;2023-07-09T07:47:49;39.94;24.41
67005;HTU21D;53920;51.094;5.902;2023-07-09T07:50:18;40.47;23.72
67005;HTU21D;53920;51.094;5.902;2023-07-09T07:52:44;40.88;23.08
67005;HTU21D;53920;51.094;5.902;2023-07-09T07:55:10;40.90;22.52
67005;HTU21D;53920;51.094;5.902;2023-07-09T07:57:36;41.00;22.43
67005;HTU21D;53920;51.094;5.902;2023-07-09T08:00:03;41.18;22.22
67005;HTU21D;53920;51.094;5.902;2023-07-09T08:02:38;41.65;21.18
67005;HTU21D;53920;51.094;5.902;2023-07-09T08:05:04;41.88;20.83
67005;HTU21D;53920;51.094;5.902;2023-07-09T08:07:31;41.43;21.51
67005;HTU21D;53920;51.094;5.902;2023-07-09T08:09:56;41.55;21.50
67005;HTU21D;53920;51.094;5.902;2023-07-09T08:12:22;41.87;21.10
67005;HTU21D;53920;51.094;5.902;2023-07-09T08:14:48;41.81;20.99
67005;HTU21D;53920;51.094;5.902;2023-07-09T08:17:14;41.75;21.09
67005;HTU21D;53920;51.094;5.902;2023-07-09T08:19:51;42.03;20.35
67005;HTU21D;53920;51.094;5.902;2023-07-09T08:22:19;42.34;20.35
67005;HTU21D;53920;51.094;5.902;2023-07-09T08:24:49;42.52;20.18
67005;HTU21D;53920;51.094;5.902;2023-07-09T08:27:15;42.50;20.12
67005;HTU21D;53920;51.094;5.902;2023-07-09T08:29:41;42.58;20.18
67005;HTU21D;53920;51.094;5.902;2023-07-09T08:32:09;42.75;19.69
67005;HTU21D;53920;51.094;5.902;2023-07-09T08:34:37;42.82;19.34
67005;HTU21D;53920;51.094;5.902;2023-07-09T08:37:04;42.51;19.70
67005;HTU21D;53920;51.094;5.902;2023-07-09T08:39:29;42.29;19.99
67005;HTU21D;53920;51.094;5.902;2023-07-09T08:42:01;42.49;19.52
67005;HTU21D;53920;51.094;5.902;2023-07-09T08:44:51;43.03;18.89
67005;HTU21D;53920;51.094;5.902;2023-07-09T08:47:40;43.42;18.67
67005;HTU21D;53920;51.094;5.902;2023-07-09T08:50:18;43.79;17.75
67005;HTU21D;53920;51.094;5.902;2023-07-09T08:52:48;44.07;17.48
67005;HTU21D;53920;51.094;5.902;2023-07-09T08:55:18;44.17;17.22
67005;HTU21D;53920;51.094;5.902;2023-07-09T08:58:14;43.92;17.32
67005;HTU21D;53920;51.094;5.902;2023-07-09T09:00:53;43.68;17.30
67005;HTU21D;53920;51.094;5.902;2023-07-09T09:06:29;43.68;16.65
67005;HTU21D;53920;51.094;5.902;2023-07-09T09:11:53;44.61;15.87
67005;HTU21D;53920;51.094;5.902;2023-07-09T09:16:50;45.26;14.77
67005;HTU21D;53920;51.094;5.902;2023-07-09T09:19:38;45.16;14.86
67005;HTU21D;53920;51.094;5.902;2023-07-09T09:22:09;45.04;15.06
67005;HTU21D;53920;51.094;5.902;2023-07-09T09:27:39;45.47;14.62
67005;HTU21D;53920;51.094;5.902;2023-07-09T09:30:14;45.11;14.94
67005;HTU21D;53920;51.094;5.902;2023-07-09T09:32:45;44.64;15.67
67005;HTU21D;53920;51.094;5.902;2023-07-09T09:35:17;44.48;15.94
67005;HTU21D;53920;51.094;5.902;2023-07-09T09:37:55;44.59;15.99
67005;HTU21D;53920;51.094;5.902;2023-07-09T09:40:22;44.83;15.93
67005;HTU21D;53920;51.094;5.902;2023-07-09T09:42:55;45.40;15.12
67005;HTU21D;53920;51.094;5.902;2023-07-09T09:45:28;45.99;14.33
67005;HTU21D;53920;51.094;5.902;2023-07-09T09:48:00;45.99;14.42
67005;HTU21D;53920;51.094;5.902;2023-07-09T09:50:31;46.04;14.14
67005;HTU21D;53920;51.094;5.902;2023-07-09T09:52:59;46.28;14.02
67005;HTU21D;53920;51.094;5.902;2023-07-09T09:55:30;46.61;13.56
67005;HTU21D;53920;51.094;5.902;2023-07-09T09:57:56;46.96;13.40
67005;HTU21D;53920;51.094;5.902;2023-07-09T10:00:25;47.13;13.23
67005;HTU21D;53920;51.094;5.902;2023-07-09T10:03:01;47.33;12.99
67005;HTU21D;53920;51.094;5.902;2023-07-09T10:05:43;47.54;12.96
67005;HTU21D;53920;51.094;5.902;2023-07-09T10:10:52;47.33;12.89
67005;HTU21D;53920;51.094;5.902;2023-07-09T10:13:29;47.72;12.49
67005;HTU21D;53920;51.094;5.902;2023-07-09T10:16:30;47.98;12.04
67005;HTU21D;53920;51.094;5.902;2023-07-09T10:19:09;47.68;12.41
67005;HTU21D;53920;51.094;5.902;2023-07-09T10:21:59;46.65;13.42
67005;HTU21D;53920;51.094;5.902;2023-07-09T10:27:22;46.07;14.01
67005;HTU21D;53920;51.094;5.902;2023-07-09T10:32:56;46.39;13.38
67005;HTU21D;53920;51.094;5.902;2023-07-09T10:35:52;46.77;12.84
67005;HTU21D;53920;51.094;5.902;2023-07-09T10:41:03;47.41;12.27
67005;HTU21D;53920;51.094;5.902;2023-07-09T10:43:40;47.16;11.94
67005;HTU21D;53920;51.094;5.902;2023-07-09T10:46:18;47.11;11.06
67005;HTU21D;53920;51.094;5.902;2023-07-09T10:48:54;46.48;11.78
67005;HTU21D;53920;51.094;5.902;2023-07-09T10:51:28;46.03;12.39
67005;HTU21D;53920;51.094;5.902;2023-07-09T10:54:15;46.10;12.71
67005;HTU21D;53920;51.094;5.902;2023-07-09T10:56:48;46.36;12.82
67005;HTU21D;53920;51.094;5.902;2023-07-09T10:59:28;46.62;12.57
67005;HTU21D;53920;51.094;5.902;2023-07-09T11:02:21;46.18;12.93
67005;HTU21D;53920;51.094;5.902;2023-07-09T11:07:38;44.76;14.31
67005;HTU21D;53920;51.094;5.902;2023-07-09T11:10:22;44.51;14.69
67005;HTU21D;53920;51.094;5.902;2023-07-09T11:15:49;44.23;14.90
67005;HTU21D;53920;51.094;5.902;2023-07-09T11:18:25;44.31;14.69
67005;HTU21D;53920;51.094;5.902;2023-07-09T11:23:39;44.35;15.08
67005;HTU21D;53920;51.094;5.902;2023-07-09T11:26:12;44.54;15.29
67005;HTU21D;53920;51.094;5.902;2023-07-09T11:28:46;44.71;14.80
67005;HTU21D;53920;51.094;5.902;2023-07-09T11:34:21;44.20;15.06
67005;HTU21D;53920;51.094;5.902;2023-07-09T11:42:02;42.72;16.26
67005;HTU21D;53920;51.094;5.902;2023-07-09T11:44:31;42.13;17.23
67005;HTU21D;53920;51.094;5.902;2023-07-09T11:49:55;41.56;18.22
67005;HTU21D;53920;51.094;5.902;2023-07-09T11:52:30;41.12;18.51
67005;HTU21D;53920;51.094;5.902;2023-07-09T11:57:48;40.44;18.81
67005;HTU21D;53920;51.094;5.902;2023-07-09T12:00:15;40.50;18.95
67005;HTU21D;53920;51.094;5.902;2023-07-09T12:02:42;40.38;19.18
67005;HTU21D;53920;51.094;5.902;2023-07-09T12:05:10;40.15;19.41
67005;HTU21D;53920;51.094;5.902;2023-07-09T12:07:36;40.15;19.43
67005;HTU21D;53920;51.094;5.902;2023-07-09T12:10:19;40.02;19.38
67005;HTU21D;53920;51.094;5.902;2023-07-09T12:12:45;39.84;19.39
67005;HTU21D;53920;51.094;5.902;2023-07-09T12:15:23;39.50;19.38
67005;HTU21D;53920;51.094;5.902;2023-07-09T12:18:16;39.20;19.55
67005;HTU21D;53920;51.094;5.902;2023-07-09T12:20:52;38.97;19.95
67005;HTU21D;53920;51.094;5.902;2023-07-09T12:23:25;38.93;20.81
67005;HTU21D;53920;51.094;5.902;2023-07-09T12:26:00;38.77;21.27
67005;HTU21D;53920;51.094;5.902;2023-07-09T12:28:28;38.61;21.95
67005;HTU21D;53920;51.094;5.902;2023-07-09T12:30:54;38.45;22.58
67005;HTU21D;53920;51.094;5.902;2023-07-09T12:33:26;38.15;22.89
67005;HTU21D;53920;51.094;5.902;2023-07-09T12:36:01;37.82;23.50
67005;HTU21D;53920;51.094;5.902;2023-07-09T12:38:33;37.50;24.61
67005;HTU21D;53920;51.094;5.902;2023-07-09T12:41:06;37.26;25.74
67005;HTU21D;53920;51.094;5.902;2023-07-09T12:43:32;36.89;26.10
67005;HTU21D;53920;51.094;5.902;2023-07-09T12:46:01;36.56;26.71
67005;HTU21D;53920;51.094;5.902;2023-07-09T12:48:29;36.34;28.00
67005;HTU21D;53920;51.094;5.902;2023-07-09T12:50:57;36.06;28.83
67005;HTU21D;53920;51.094;5.902;2023-07-09T12:53:27;35.63;29.74
67005;HTU21D;53920;51.094;5.902;2023-07-09T12:55:59;35.05;30.73
67005;HTU21D;53920;51.094;5.902;2023-07-09T12:58:30;34.59;31.38
67005;HTU21D;53920;51.094;5.902;2023-07-09T13:00:57;34.31;32.17
67005;HTU21D;53920;51.094;5.902;2023-07-09T13:03:29;33.99;32.61
67005;HTU21D;53920;51.094;5.902;2023-07-09T13:06:00;33.79;33.27
67005;HTU21D;53920;51.094;5.902;2023-07-09T13:08:40;33.63;34.08
67005;HTU21D;53920;51.094;5.902;2023-07-09T13:11:17;33.47;34.70
67005;HTU21D;53920;51.094;5.902;2023-07-09T13:13:57;33.34;34.82
67005;HTU21D;53920;51.094;5.902;2023-07-09T13:16:25;33.26;34.92
67005;HTU21D;53920;51.094;5.902;2023-07-09T13:18:51;33.09;35.59
67005;HTU21D;53920;51.094;5.902;2023-07-09T13:21:19;31.10;44.89
67005;HTU21D;53920;51.094;5.902;2023-07-09T13:23:46;28.59;58.58
67005;HTU21D;53920;51.094;5.902;2023-07-09T13:26:14;27.19;64.72
67005;HTU21D;53920;51.094;5.902;2023-07-09T13:28:39;26.36;68.67
67005;HTU21D;53920;51.094;5.902;2023-07-09T13:31:18;25.72;71.19
67005;HTU21D;53920;51.094;5.902;2023-07-09T13:33:52;25.21;73.99
67005;HTU21D;53920;51.094;5.902;2023-07-09T13:36:20;25.10;76.05
67005;HTU21D;53920;51.094;5.902;2023-07-09T13:38:46;25.02;76.96
67005;HTU21D;53920;51.094;5.902;2023-07-09T13:41:15;24.54;77.19
67005;HTU21D;53920;51.094;5.902;2023-07-09T13:43:45;23.61;80.05
67005;HTU21D;53920;51.094;5.902;2023-07-09T13:46:11;23.01;81.21
67005;HTU21D;53920;51.094;5.902;2023-07-09T13:48:38;22.40;83.06
67005;HTU21D;53920;51.094;5.902;2023-07-09T13:51:18;22.03;85.18
67005;HTU21D;53920;51.094;5.902;2023-07-09T13:53:45;21.75;83.86
67005;HTU21D;53920;51.094;5.902;2023-07-09T13:56:11;21.43;85.03
67005;HTU21D;53920;51.094;5.902;2023-07-09T13:58:37;21.07;83.56
67005;HTU21D;53920;51.094;5.902;2023-07-09T14:01:14;20.94;82.79
67005;HTU21D;53920;51.094;5.902;2023-07-09T14:03:41;20.92;83.16
67005;HTU21D;53920;51.094;5.902;2023-07-09T14:06:14;21.03;82.62
67005;HTU21D;53920;51.094;5.902;2023-07-09T14:08:40;21.17;81.98
67005;HTU21D;53920;51.094;5.902;2023-07-09T14:11:14;21.45;81.42
67005;HTU21D;53920;51.094;5.902;2023-07-09T14:13:40;21.78;81.67
67005;HTU21D;53920;51.094;5.902;2023-07-09T14:16:10;22.17;80.77
67005;HTU21D;53920;51.094;5.902;2023-07-09T14:18:37;22.50;80.43
67005;HTU21D;53920;51.094;5.902;2023-07-09T14:21:18;22.86;80.07
67005;HTU21D;53920;51.094;5.902;2023-07-09T14:23:46;23.20;79.50
67005;HTU21D;53920;51.094;5.902;2023-07-09T14:26:12;23.45;79.31
67005;HTU21D;53920;51.094;5.902;2023-07-09T14:28:38;23.62;78.14
67005;HTU21D;53920;51.094;5.902;2023-07-09T14:31:21;23.65;77.67
67005;HTU21D;53920;51.094;5.902;2023-07-09T14:33:48;23.60;77.71
67005;HTU21D;53920;51.094;5.902;2023-07-09T14:36:14;23.66;77.82
67005;HTU21D;53920;51.094;5.902;2023-07-09T14:38:40;23.77;77.70
67005;HTU21D;53920;51.094;5.902;2023-07-09T14:41:21;23.75;78.23
67005;HTU21D;53920;51.094;5.902;2023-07-09T14:43:48;23.75;78.02
67005;HTU21D;53920;51.094;5.902;2023-07-09T14:46:14;23.83;77.98
67005;HTU21D;53920;51.094;5.902;2023-07-09T14:48:40;23.95;78.01
67005;HTU21D;53920;51.094;5.902;2023-07-09T14:51:14;24.18;78.14
67005;HTU21D;53920;51.094;5.902;2023-07-09T14:53:41;24.40;77.56
67005;HTU21D;53920;51.094;5.902;2023-07-09T14:56:11;24.69;77.11
67005;HTU21D;53920;51.094;5.902;2023-07-09T14:58:37;24.79;75.62
67005;HTU21D;53920;51.094;5.902;2023-07-09T15:01:03;24.80;75.36
67005;HTU21D;53920;51.094;5.902;2023-07-09T15:03:29;24.80;75.34
67005;HTU21D;53920;51.094;5.902;2023-07-09T15:05:55;24.83;74.46
67005;HTU21D;53920;51.094;5.902;2023-07-09T15:08:24;24.98;74.17
67005;HTU21D;53920;51.094;5.902;2023-07-09T15:10:51;25.13;74.22
67005;HTU21D;53920;51.094;5.902;2023-07-09T15:13:41;25.21;73.61
67005;HTU21D;53920;51.094;5.902;2023-07-09T15:16:06;25.32;73.42
67005;HTU21D;53920;51.094;5.902;2023-07-09T15:18:32;25.38;73.09
67005;HTU21D;53920;51.094;5.902;2023-07-09T15:21:03;25.48;73.03
67005;HTU21D;53920;51.094;5.902;2023-07-09T15:23:30;25.64;72.73
67005;HTU21D;53920;51.094;5.902;2023-07-09T15:25:56;25.73;73.49
67005;HTU21D;53920;51.094;5.902;2023-07-09T15:28:22;25.84;73.26
67005;HTU21D;53920;51.094;5.902;2023-07-09T15:30:48;25.90;73.10
67005;HTU21D;53920;51.094;5.902;2023-07-09T15:33:16;25.92;71.84
67005;HTU21D;53920;51.094;5.902;2023-07-09T15:35:44;25.93;71.42
67005;HTU21D;53920;51.094;5.902;2023-07-09T15:38:27;26.04;71.52
67005;HTU21D;53920;51.094;5.902;2023-07-09T15:40:54;26.26;71.22
67005;HTU21D;53920;51.094;5.902;2023-07-09T15:43:20;26.47;70.25
67005;HTU21D;53920;51.094;5.902;2023-07-09T15:45:49;26.67;69.93
67005;HTU21D;53920;51.094;5.902;2023-07-09T15:48:37;26.89;71.40
67005;HTU21D;53920;51.094;5.902;2023-07-09T15:51:04;27.11;71.15
67005;HTU21D;53920;51.094;5.902;2023-07-09T15:53:31;27.22;71.00
67005;HTU21D;53920;51.094;5.902;2023-07-09T15:56:00;27.35;71.25
67005;HTU21D;53920;51.094;5.902;2023-07-09T15:58:35;27.42;71.55
67005;HTU21D;53920;51.094;5.902;2023-07-09T16:01:02;27.39;71.45
67005;HTU21D;53920;51.094;5.902;2023-07-09T16:03:28;27.28;71.07
67005;HTU21D;53920;51.094;5.902;2023-07-09T16:05:54;27.14;71.14
67005;HTU21D;53920;51.094;5.902;2023-07-09T16:08:20;26.91;71.19
67005;HTU21D;53920;51.094;5.902;2023-07-09T16:10:45;26.73;71.42
67005;HTU21D;53920;51.094;5.902;2023-07-09T16:13:23;26.61;71.34
67005;HTU21D;53920;51.094;5.902;2023-07-09T16:15:50;26.51;72.24
67005;HTU21D;53920;51.094;5.902;2023-07-09T16:18:17;26.42;72.07
67005;HTU21D;53920;51.094;5.902;2023-07-09T16:20:44;26.39;72.27